sensor_id;sensor_type;location;lat;lon;timestamp;P1;durP1;ratioP1;P2;durP2;ratioP2
39890;SDS011;25564;53.312;9.790;2023-11-19T00:02:04;1.67;;;0.93;;
39890;SDS011;25564;53.312;9.790;2023-11-19T00:04:36;1.33;;;0.90;;
39890;SDS011;25564;53.312;9.790;2023-11-19T00:07:11;1.50;;;1.03;;
39890;SDS011;25564;53.312;9.790;2023-11-19T00:09:44;4.07;;;0.90;;
39890;SDS011;25564;53.312;9.790;2023-11-19T00:12:17;2.30;;;0.80;;
39890;SDS011;25564;53.312;9.790;2023-11-19T00:14:49;0.90;;;0.73;;
39890;SDS011;25564;53.312;9.790;2023-11-19T00:17:21;1.70;;;0.87;;
39890;SDS011;25564;53.312;9.790;2023-11-19T00:19:53;1.30;;;0.80;;
39890;SDS011;25564;53.312;9.790;2023-11-19T00:22:26;0.97;;;0.57;;
39890;SDS011;25564;53.312;9.790;2023-11-19T00:24:58;0.90;;;0.63;;
39890;SDS011;25564;53.312;9.790;2023-11-19T00:27:29;1.27;;;0.70;;
39890;SDS011;25564;53.312;9.790;2023-11-19T00:30:01;3.97;;;1.10;;
39890;SDS011;25564;53.312;9.790;2023-11-19T00:32:36;2.40;;;0.73;;
39890;SDS011;25564;53.312;9.790;2023-11-19T00:35:09;1.07;;;0.70;;
39890;SDS011;25564;53.312;9.790;2023-11-19T00:37:46;0.80;;;0.70;;
39890;SDS011;25564;53.312;9.790;2023-11-19T00:40:18;1.87;;;0.47;;
39890;SDS011;25564;53.312;9.790;2023-11-19T00:42:52;1.00;;;0.77;;
39890;SDS011;25564;53.312;9.790;2023-11-19T00:45:24;0.90;;;0.60;;
39890;SDS011;25564;53.312;9.790;2023-11-19T00:47:55;0.80;;;0.60;;
39890;SDS011;25564;53.312;9.790;2023-11-19T00:50:27;1.00;;;0.60;;
39890;SDS011;25564;53.312;9.790;2023-11-19T00:52:58;0.93;;;0.60;;
39890;SDS011;25564;53.312;9.790;2023-11-19T00:55:29;0.57;;;0.50;;
39890;SDS011;25564;53.312;9.790;2023-11-19T00:58:01;0.73;;;0.60;;
39890;SDS011;25564;53.312;9.790;2023-11-19T01:00:32;0.80;;;0.43;;
39890;SDS011;25564;53.312;9.790;2023-11-19T01:03:04;1.13;;;0.60;;
39890;SDS011;25564;53.312;9.790;2023-11-19T01:05:36;0.53;;;0.50;;
39890;SDS011;25564;53.312;9.790;2023-11-19T01:08:08;0.70;;;0.60;;
39890;SDS011;25564;53.312;9.790;2023-11-19T01:10:40;0.50;;;0.40;;
39890;SDS011;25564;53.312;9.790;2023-11-19T01:13:11;0.47;;;0.40;;
39890;SDS011;25564;53.312;9.790;2023-11-19T01:15:43;0.30;;;0.30;;
39890;SDS011;25564;53.312;9.790;2023-11-19T01:18:14;0.80;;;0.60;;
39890;SDS011;25564;53.312;9.790;2023-11-19T01:20:46;0.70;;;0.50;;
39890;SDS011;25564;53.312;9.790;2023-11-19T01:23:17;1.13;;;0.50;;
39890;SDS011;25564;53.312;9.790;2023-11-19T01:25:48;1.63;;;0.47;;
39890;SDS011;25564;53.312;9.790;2023-11-19T01:28:19;1.00;;;0.57;;
39890;SDS011;25564;53.312;9.790;2023-11-19T01:30:51;0.67;;;0.30;;
39890;SDS011;25564;53.312;9.790;2023-11-19T01:33:23;0.83;;;0.40;;
39890;SDS011;25564;53.312;9.790;2023-11-19T01:35:54;0.60;;;0.50;;
39890;SDS011;25564;53.312;9.790;2023-11-19T01:38:26;1.20;;;0.60;;
39890;SDS011;25564;53.312;9.790;2023-11-19T01:40:58;0.77;;;0.43;;
39890;SDS011;25564;53.312;9.790;2023-11-19T01:43:33;0.80;;;0.50;;
39890;SDS011;25564;53.312;9.790;2023-11-19T01:46:05;1.00;;;0.63;;
39890;SDS011;25564;53.312;9.790;2023-11-19T01:48:45;1.30;;;0.70;;
39890;SDS011;25564;53.312;9.790;2023-11-19T01:51:17;0.57;;;0.50;;
39890;SDS011;25564;53.312;9.790;2023-11-19T01:53:48;1.20;;;0.70;;
39890;SDS011;25564;53.312;9.790;2023-11-19T01:56:20;1.40;;;0.90;;
39890;SDS011;25564;53.312;9.790;2023-11-19T01:58:53;0.93;;;0.53;;
39890;SDS011;25564;53.312;9.790;2023-11-19T02:01:27;1.07;;;0.63;;
39890;SDS011;25564;53.312;9.790;2023-11-19T02:03:58;1.00;;;0.70;;
39890;SDS011;25564;53.312;9.790;2023-11-19T02:06:32;0.93;;;0.50;;
39890;SDS011;25564;53.312;9.790;2023-11-19T02:09:05;1.80;;;0.80;;
39890;SDS011;25564;53.312;9.790;2023-11-19T02:11:42;1.50;;;0.80;;
39890;SDS011;25564;53.312;9.790;2023-11-19T02:14:13;2.03;;;0.70;;
39890;SDS011;25564;53.312;9.790;2023-11-19T02:16:45;0.53;;;0.53;;
39890;SDS011;25564;53.312;9.790;2023-11-19T02:19:19;1.07;;;0.70;;
39890;SDS011;25564;53.312;9.790;2023-11-19T02:21:50;1.30;;;0.73;;
39890;SDS011;25564;53.312;9.790;2023-11-19T02:24:22;1.77;;;0.80;;
39890;SDS011;25564;53.312;9.790;2023-11-19T02:27:08;0.93;;;0.63;;
39890;SDS011;25564;53.312;9.790;2023-11-19T02:29:46;1.30;;;0.70;;
39890;SDS011;25564;53.312;9.790;2023-11-19T02:32:18;1.63;;;1.13;;
39890;SDS011;25564;53.312;9.790;2023-11-19T02:34:50;1.50;;;0.93;;
39890;SDS011;25564;53.312;9.790;2023-11-19T02:37:22;2.17;;;1.10;;
39890;SDS011;25564;53.312;9.790;2023-11-19T02:39:54;2.27;;;1.23;;
39890;SDS011;25564;53.312;9.790;2023-11-19T02:42:25;1.77;;;1.17;;
39890;SDS011;25564;53.312;9.790;2023-11-19T02:44:56;1.40;;;1.00;;
39890;SDS011;25564;53.312;9.790;2023-11-19T02:47:28;2.10;;;1.40;;
39890;SDS011;25564;53.312;9.790;2023-11-19T02:50:01;2.03;;;1.37;;
39890;SDS011;25564;53.312;9.790;2023-11-19T02:52:33;2.67;;;1.20;;
39890;SDS011;25564;53.312;9.790;2023-11-19T02:55:09;2.33;;;1.40;;
39890;SDS011;25564;53.312;9.790;2023-11-19T02:57:43;1.93;;;1.20;;
39890;SDS011;25564;53.312;9.790;2023-11-19T03:00:20;3.20;;;1.60;;
39890;SDS011;25564;53.312;9.790;2023-11-19T03:02:55;3.23;;;1.50;;
39890;SDS011;25564;53.312;9.790;2023-11-19T03:05:30;2.93;;;1.70;;
39890;SDS011;25564;53.312;9.790;2023-11-19T03:08:02;1.63;;;1.20;;
39890;SDS011;25564;53.312;9.790;2023-11-19T03:10:34;2.13;;;1.40;;
39890;SDS011;25564;53.312;9.790;2023-11-19T03:13:06;2.80;;;1.60;;
39890;SDS011;25564;53.312;9.790;2023-11-19T03:15:44;2.20;;;1.30;;
39890;SDS011;25564;53.312;9.790;2023-11-19T03:18:15;1.90;;;1.40;;
39890;SDS011;25564;53.312;9.790;2023-11-19T03:20:47;2.00;;;1.40;;
39890;SDS011;25564;53.312;9.790;2023-11-19T03:23:18;3.00;;;1.60;;
39890;SDS011;25564;53.312;9.790;2023-11-19T03:25:50;2.30;;;1.50;;
39890;SDS011;25564;53.312;9.790;2023-11-19T03:28:21;3.00;;;1.60;;
39890;SDS011;25564;53.312;9.790;2023-11-19T03:30:53;2.87;;;1.63;;
39890;SDS011;25564;53.312;9.790;2023-11-19T03:33:25;3.70;;;2.10;;
39890;SDS011;25564;53.312;9.790;2023-11-19T03:35:58;4.27;;;2.17;;
39890;SDS011;25564;53.312;9.790;2023-11-19T03:38:30;4.93;;;2.30;;
39890;SDS011;25564;53.312;9.790;2023-11-19T03:41:01;4.50;;;2.60;;
39890;SDS011;25564;53.312;9.790;2023-11-19T03:43:32;5.00;;;2.83;;
39890;SDS011;25564;53.312;9.790;2023-11-19T03:46:04;6.77;;;3.10;;
39890;SDS011;25564;53.312;9.790;2023-11-19T03:48:36;8.83;;;3.40;;
39890;SDS011;25564;53.312;9.790;2023-11-19T03:51:09;11.50;;;4.50;;
39890;SDS011;25564;53.312;9.790;2023-11-19T03:53:42;10.63;;;4.87;;
39890;SDS011;25564;53.312;9.790;2023-11-19T03:56:14;16.83;;;5.47;;
39890;SDS011;25564;53.312;9.790;2023-11-19T03:58:45;14.00;;;5.40;;
39890;SDS011;25564;53.312;9.790;2023-11-19T04:01:17;18.80;;;5.90;;
39890;SDS011;25564;53.312;9.790;2023-11-19T04:03:48;13.33;;;5.80;;
39890;SDS011;25564;53.312;9.790;2023-11-19T04:06:21;16.93;;;7.17;;
39890;SDS011;25564;53.312;9.790;2023-11-19T04:08:53;18.07;;;7.47;;
39890;SDS011;25564;53.312;9.790;2023-11-19T04:11:24;17.90;;;7.00;;
39890;SDS011;25564;53.312;9.790;2023-11-19T04:13:56;21.10;;;7.83;;
39890;SDS011;25564;53.312;9.790;2023-11-19T04:16:27;18.60;;;7.83;;
39890;SDS011;25564;53.312;9.790;2023-11-19T04:19:02;17.50;;;7.50;;
39890;SDS011;25564;53.312;9.790;2023-11-19T04:21:33;21.27;;;8.37;;
39890;SDS011;25564;53.312;9.790;2023-11-19T04:24:05;24.23;;;9.07;;
39890;SDS011;25564;53.312;9.790;2023-11-19T04:26:36;21.60;;;8.00;;
39890;SDS011;25564;53.312;9.790;2023-11-19T04:29:16;17.53;;;7.97;;
39890;SDS011;25564;53.312;9.790;2023-11-19T04:31:48;20.93;;;8.30;;
39890;SDS011;25564;53.312;9.790;2023-11-19T04:34:19;25.43;;;9.47;;
39890;SDS011;25564;53.312;9.790;2023-11-19T04:36:51;23.43;;;8.33;;
39890;SDS011;25564;53.312;9.790;2023-11-19T04:39:22;24.97;;;9.63;;
39890;SDS011;25564;53.312;9.790;2023-11-19T04:41:54;25.97;;;9.70;;
39890;SDS011;25564;53.312;9.790;2023-11-19T04:44:26;20.00;;;8.47;;
39890;SDS011;25564;53.312;9.790;2023-11-19T04:46:57;23.17;;;9.47;;
39890;SDS011;25564;53.312;9.790;2023-11-19T04:49:29;24.83;;;9.90;;
39890;SDS011;25564;53.312;9.790;2023-11-19T04:52:01;28.50;;;10.13;;
39890;SDS011;25564;53.312;9.790;2023-11-19T04:54:34;20.40;;;9.67;;
39890;SDS011;25564;53.312;9.790;2023-11-19T04:57:05;23.40;;;9.23;;
39890;SDS011;25564;53.312;9.790;2023-11-19T04:59:36;22.50;;;10.20;;
39890;SDS011;25564;53.312;9.790;2023-11-19T05:02:08;19.97;;;10.17;;
39890;SDS011;25564;53.312;9.790;2023-11-19T05:04:43;21.00;;;9.00;;
39890;SDS011;25564;53.312;9.790;2023-11-19T05:07:15;24.45;;;10.38;;
39890;SDS011;25564;53.312;9.790;2023-11-19T05:09:47;29.13;;;10.40;;
39890;SDS011;25564;53.312;9.790;2023-11-19T05:12:18;27.07;;;10.37;;
39890;SDS011;25564;53.312;9.790;2023-11-19T05:14:49;25.10;;;10.77;;
39890;SDS011;25564;53.312;9.790;2023-11-19T05:17:22;30.17;;;10.30;;
39890;SDS011;25564;53.312;9.790;2023-11-19T05:19:53;23.20;;;10.50;;
39890;SDS011;25564;53.312;9.790;2023-11-19T05:22:24;20.80;;;9.50;;
39890;SDS011;25564;53.312;9.790;2023-11-19T05:24:57;25.80;;;10.60;;
39890;SDS011;25564;53.312;9.790;2023-11-19T05:27:28;31.73;;;10.47;;
39890;SDS011;25564;53.312;9.790;2023-11-19T05:29:59;21.80;;;8.23;;
39890;SDS011;25564;53.312;9.790;2023-11-19T05:32:31;30.13;;;10.57;;
39890;SDS011;25564;53.312;9.790;2023-11-19T05:35:02;30.53;;;10.33;;
39890;SDS011;25564;53.312;9.790;2023-11-19T05:37:34;32.63;;;10.23;;
39890;SDS011;25564;53.312;9.790;2023-11-19T05:40:06;21.27;;;9.53;;
39890;SDS011;25564;53.312;9.790;2023-11-19T05:42:45;28.73;;;10.30;;
39890;SDS011;25564;53.312;9.790;2023-11-19T05:45:17;26.73;;;10.03;;
39890;SDS011;25564;53.312;9.790;2023-11-19T05:47:48;28.97;;;9.30;;
39890;SDS011;25564;53.312;9.790;2023-11-19T05:50:19;27.63;;;9.77;;
39890;SDS011;25564;53.312;9.790;2023-11-19T05:52:51;24.93;;;8.87;;
39890;SDS011;25564;53.312;9.790;2023-11-19T05:55:24;27.73;;;9.90;;
39890;SDS011;25564;53.312;9.790;2023-11-19T05:57:55;23.27;;;9.50;;
39890;SDS011;25564;53.312;9.790;2023-11-19T06:00:27;31.00;;;10.70;;
39890;SDS011;25564;53.312;9.790;2023-11-19T06:02:58;27.30;;;9.90;;
39890;SDS011;25564;53.312;9.790;2023-11-19T06:05:30;23.53;;;9.00;;
39890;SDS011;25564;53.312;9.790;2023-11-19T06:08:01;26.77;;;9.93;;
39890;SDS011;25564;53.312;9.790;2023-11-19T06:10:32;29.63;;;9.53;;
39890;SDS011;25564;53.312;9.790;2023-11-19T06:13:04;25.57;;;9.70;;
39890;SDS011;25564;53.312;9.790;2023-11-19T06:15:36;21.63;;;8.93;;
39890;SDS011;25564;53.312;9.790;2023-11-19T06:18:08;29.27;;;9.63;;
39890;SDS011;25564;53.312;9.790;2023-11-19T06:20:40;27.83;;;8.87;;
39890;SDS011;25564;53.312;9.790;2023-11-19T06:23:14;26.83;;;9.23;;
39890;SDS011;25564;53.312;9.790;2023-11-19T06:25:45;25.07;;;9.13;;
39890;SDS011;25564;53.312;9.790;2023-11-19T06:28:17;31.63;;;9.00;;
39890;SDS011;25564;53.312;9.790;2023-11-19T06:30:48;25.73;;;9.00;;
39890;SDS011;25564;53.312;9.790;2023-11-19T06:33:20;30.80;;;10.33;;
39890;SDS011;25564;53.312;9.790;2023-11-19T06:35:51;27.87;;;9.20;;
39890;SDS011;25564;53.312;9.790;2023-11-19T06:38:23;27.07;;;9.07;;
39890;SDS011;25564;53.312;9.790;2023-11-19T06:40:54;24.33;;;8.47;;
39890;SDS011;25564;53.312;9.790;2023-11-19T06:43:25;26.93;;;8.40;;
39890;SDS011;25564;53.312;9.790;2023-11-19T06:45:57;33.07;;;9.00;;
39890;SDS011;25564;53.312;9.790;2023-11-19T06:48:28;22.53;;;9.20;;
39890;SDS011;25564;53.312;9.790;2023-11-19T06:51:00;31.93;;;9.57;;
39890;SDS011;25564;53.312;9.790;2023-11-19T06:53:31;32.03;;;8.10;;
39890;SDS011;25564;53.312;9.790;2023-11-19T06:56:03;20.97;;;7.77;;
39890;SDS011;25564;53.312;9.790;2023-11-19T06:58:39;22.90;;;8.03;;
39890;SDS011;25564;53.312;9.790;2023-11-19T07:01:11;27.00;;;8.00;;
39890;SDS011;25564;53.312;9.790;2023-11-19T07:03:44;21.57;;;8.07;;
39890;SDS011;25564;53.312;9.790;2023-11-19T07:06:17;33.73;;;7.70;;
39890;SDS011;25564;53.312;9.790;2023-11-19T07:08:49;22.53;;;8.20;;
39890;SDS011;25564;53.312;9.790;2023-11-19T07:11:20;33.57;;;8.63;;
39890;SDS011;25564;53.312;9.790;2023-11-19T07:13:52;20.87;;;5.90;;
39890;SDS011;25564;53.312;9.790;2023-11-19T07:16:23;23.37;;;7.17;;
39890;SDS011;25564;53.312;9.790;2023-11-19T07:18:55;25.67;;;7.40;;
39890;SDS011;25564;53.312;9.790;2023-11-19T07:21:26;23.40;;;7.53;;
39890;SDS011;25564;53.312;9.790;2023-11-19T07:23:59;27.87;;;6.87;;
39890;SDS011;25564;53.312;9.790;2023-11-19T07:26:30;26.83;;;6.10;;
39890;SDS011;25564;53.312;9.790;2023-11-19T07:29:02;22.70;;;6.40;;
39890;SDS011;25564;53.312;9.790;2023-11-19T07:31:34;21.03;;;6.53;;
39890;SDS011;25564;53.312;9.790;2023-11-19T07:34:05;31.63;;;6.67;;
39890;SDS011;25564;53.312;9.790;2023-11-19T07:36:37;17.97;;;5.30;;
39890;SDS011;25564;53.312;9.790;2023-11-19T07:39:09;26.23;;;5.93;;
39890;SDS011;25564;53.312;9.790;2023-11-19T07:41:40;25.13;;;5.60;;
39890;SDS011;25564;53.312;9.790;2023-11-19T07:44:12;19.57;;;4.90;;
39890;SDS011;25564;53.312;9.790;2023-11-19T07:46:43;16.93;;;4.70;;
39890;SDS011;25564;53.312;9.790;2023-11-19T07:49:16;15.37;;;4.57;;
39890;SDS011;25564;53.312;9.790;2023-11-19T07:51:47;20.53;;;5.87;;
39890;SDS011;25564;53.312;9.790;2023-11-19T07:54:18;21.87;;;5.50;;
39890;SDS011;25564;53.312;9.790;2023-11-19T07:56:52;22.87;;;4.33;;
39890;SDS011;25564;53.312;9.790;2023-11-19T07:59:24;23.93;;;5.33;;
39890;SDS011;25564;53.312;9.790;2023-11-19T08:01:55;17.33;;;4.23;;
39890;SDS011;25564;53.312;9.790;2023-11-19T08:04:26;25.03;;;5.00;;
39890;SDS011;25564;53.312;9.790;2023-11-19T08:06:58;27.10;;;4.53;;
39890;SDS011;25564;53.312;9.790;2023-11-19T08:09:29;20.33;;;3.67;;
39890;SDS011;25564;53.312;9.790;2023-11-19T08:12:01;19.73;;;5.47;;
39890;SDS011;25564;53.312;9.790;2023-11-19T08:14:32;21.33;;;5.10;;
39890;SDS011;25564;53.312;9.790;2023-11-19T08:17:04;28.50;;;4.77;;
39890;SDS011;25564;53.312;9.790;2023-11-19T08:19:35;24.00;;;4.77;;
39890;SDS011;25564;53.312;9.790;2023-11-19T08:22:07;24.63;;;4.57;;
39890;SDS011;25564;53.312;9.790;2023-11-19T08:24:38;18.80;;;4.70;;
39890;SDS011;25564;53.312;9.790;2023-11-19T08:27:09;21.33;;;4.93;;
39890;SDS011;25564;53.312;9.790;2023-11-19T08:29:41;26.43;;;4.90;;
39890;SDS011;25564;53.312;9.790;2023-11-19T08:32:12;20.87;;;4.23;;
39890;SDS011;25564;53.312;9.790;2023-11-19T08:34:44;22.17;;;4.57;;
39890;SDS011;25564;53.312;9.790;2023-11-19T08:37:15;20.27;;;4.77;;
39890;SDS011;25564;53.312;9.790;2023-11-19T08:39:49;22.13;;;4.50;;
39890;SDS011;25564;53.312;9.790;2023-11-19T08:42:21;20.90;;;4.40;;
39890;SDS011;25564;53.312;9.790;2023-11-19T08:44:53;19.87;;;4.43;;
39890;SDS011;25564;53.312;9.790;2023-11-19T08:47:25;20.23;;;4.60;;
39890;SDS011;25564;53.312;9.790;2023-11-19T08:49:57;20.87;;;5.37;;
39890;SDS011;25564;53.312;9.790;2023-11-19T08:52:31;26.57;;;5.13;;
39890;SDS011;25564;53.312;9.790;2023-11-19T08:55:05;19.53;;;4.60;;
39890;SDS011;25564;53.312;9.790;2023-11-19T08:57:37;21.63;;;5.83;;
39890;SDS011;25564;53.312;9.790;2023-11-19T09:00:09;27.53;;;6.23;;
39890;SDS011;25564;53.312;9.790;2023-11-19T09:02:41;24.47;;;5.83;;
39890;SDS011;25564;53.312;9.790;2023-11-19T09:05:12;23.87;;;4.97;;
39890;SDS011;25564;53.312;9.790;2023-11-19T09:07:44;23.77;;;4.57;;
39890;SDS011;25564;53.312;9.790;2023-11-19T09:10:16;19.67;;;3.87;;
39890;SDS011;25564;53.312;9.790;2023-11-19T09:12:47;21.53;;;4.10;;
39890;SDS011;25564;53.312;9.790;2023-11-19T09:15:18;25.27;;;4.43;;
39890;SDS011;25564;53.312;9.790;2023-11-19T09:17:50;24.17;;;5.23;;
39890;SDS011;25564;53.312;9.790;2023-11-19T09:20:21;18.83;;;3.93;;
39890;SDS011;25564;53.312;9.790;2023-11-19T09:22:53;23.97;;;4.67;;
39890;SDS011;25564;53.312;9.790;2023-11-19T09:25:24;24.97;;;5.53;;
39890;SDS011;25564;53.312;9.790;2023-11-19T09:27:56;26.47;;;4.77;;
39890;SDS011;25564;53.312;9.790;2023-11-19T09:30:27;23.30;;;4.80;;
39890;SDS011;25564;53.312;9.790;2023-11-19T09:32:58;18.43;;;3.33;;
39890;SDS011;25564;53.312;9.790;2023-11-19T09:35:31;20.93;;;4.43;;
39890;SDS011;25564;53.312;9.790;2023-11-19T09:38:02;25.30;;;3.67;;
39890;SDS011;25564;53.312;9.790;2023-11-19T09:40:35;16.57;;;4.87;;
39890;SDS011;25564;53.312;9.790;2023-11-19T09:43:10;25.40;;;4.83;;
39890;SDS011;25564;53.312;9.790;2023-11-19T09:45:49;27.43;;;4.47;;
39890;SDS011;25564;53.312;9.790;2023-11-19T09:48:21;20.90;;;4.67;;
39890;SDS011;25564;53.312;9.790;2023-11-19T09:50:57;18.73;;;4.87;;
39890;SDS011;25564;53.312;9.790;2023-11-19T09:53:29;30.80;;;5.97;;
39890;SDS011;25564;53.312;9.790;2023-11-19T09:56:02;22.70;;;4.23;;
39890;SDS011;25564;53.312;9.790;2023-11-19T09:58:34;30.40;;;5.20;;
39890;SDS011;25564;53.312;9.790;2023-11-19T10:01:05;22.07;;;4.13;;
39890;SDS011;25564;53.312;9.790;2023-11-19T10:03:41;22.55;;;3.88;;
39890;SDS011;25564;53.312;9.790;2023-11-19T10:06:15;32.60;;;4.80;;
39890;SDS011;25564;53.312;9.790;2023-11-19T10:08:47;22.43;;;5.40;;
39890;SDS011;25564;53.312;9.790;2023-11-19T10:11:19;21.60;;;4.70;;
39890;SDS011;25564;53.312;9.790;2023-11-19T10:13:51;19.77;;;4.23;;
39890;SDS011;25564;53.312;9.790;2023-11-19T10:16:28;36.73;;;5.87;;
39890;SDS011;25564;53.312;9.790;2023-11-19T10:19:04;21.50;;;4.60;;
39890;SDS011;25564;53.312;9.790;2023-11-19T10:21:36;21.43;;;4.37;;
39890;SDS011;25564;53.312;9.790;2023-11-19T10:24:08;17.10;;;4.47;;
39890;SDS011;25564;53.312;9.790;2023-11-19T10:26:40;14.80;;;4.27;;
39890;SDS011;25564;53.312;9.790;2023-11-19T10:29:12;22.10;;;3.73;;
39890;SDS011;25564;53.312;9.790;2023-11-19T10:31:55;21.30;;;4.23;;
39890;SDS011;25564;53.312;9.790;2023-11-19T10:35:06;23.03;;;5.23;;
39890;SDS011;25564;53.312;9.790;2023-11-19T10:37:39;20.93;;;3.63;;
39890;SDS011;25564;53.312;9.790;2023-11-19T10:40:11;27.07;;;4.47;;
39890;SDS011;25564;53.312;9.790;2023-11-19T10:42:43;21.77;;;3.73;;
39890;SDS011;25564;53.312;9.790;2023-11-19T10:45:23;28.03;;;4.57;;
39890;SDS011;25564;53.312;9.790;2023-11-19T10:47:55;26.17;;;4.10;;
39890;SDS011;25564;53.312;9.790;2023-11-19T10:50:28;21.47;;;5.80;;
39890;SDS011;25564;53.312;9.790;2023-11-19T10:53:03;23.53;;;5.17;;
39890;SDS011;25564;53.312;9.790;2023-11-19T10:55:36;22.13;;;4.40;;
39890;SDS011;25564;53.312;9.790;2023-11-19T10:58:12;18.13;;;4.13;;
39890;SDS011;25564;53.312;9.790;2023-11-19T11:00:50;24.77;;;4.77;;
39890;SDS011;25564;53.312;9.790;2023-11-19T11:03:25;32.20;;;4.60;;
39890;SDS011;25564;53.312;9.790;2023-11-19T11:06:01;20.73;;;5.03;;
39890;SDS011;25564;53.312;9.790;2023-11-19T11:08:36;21.37;;;3.77;;
39890;SDS011;25564;53.312;9.790;2023-11-19T11:11:08;23.37;;;4.67;;
39890;SDS011;25564;53.312;9.790;2023-11-19T11:13:43;21.17;;;3.47;;
39890;SDS011;25564;53.312;9.790;2023-11-19T11:16:18;23.83;;;6.47;;
39890;SDS011;25564;53.312;9.790;2023-11-19T11:18:51;21.05;;;3.85;;
39890;SDS011;25564;53.312;9.790;2023-11-19T11:21:24;21.97;;;4.10;;
39890;SDS011;25564;53.312;9.790;2023-11-19T11:32:34;17.53;;;3.83;;
39890;SDS011;25564;53.312;9.790;2023-11-19T11:38:06;20.77;;;3.97;;
39890;SDS011;25564;53.312;9.790;2023-11-19T11:40:38;15.43;;;4.43;;
39890;SDS011;25564;53.312;9.790;2023-11-19T11:49:08;17.27;;;4.10;;
39890;SDS011;25564;53.312;9.790;2023-11-19T11:59:54;22.57;;;3.70;;
39890;SDS011;25564;53.312;9.790;2023-11-19T12:02:26;15.60;;;3.50;;
39890;SDS011;25564;53.312;9.790;2023-11-19T12:04:57;22.13;;;4.30;;
39890;SDS011;25564;53.312;9.790;2023-11-19T12:07:29;18.80;;;4.17;;
39890;SDS011;25564;53.312;9.790;2023-11-19T12:10:07;13.43;;;3.17;;
39890;SDS011;25564;53.312;9.790;2023-11-19T12:12:40;17.73;;;3.90;;
39890;SDS011;25564;53.312;9.790;2023-11-19T12:15:13;19.20;;;4.40;;
39890;SDS011;25564;53.312;9.790;2023-11-19T12:17:46;26.73;;;5.13;;
39890;SDS011;25564;53.312;9.790;2023-11-19T12:20:24;28.03;;;4.27;;
39890;SDS011;25564;53.312;9.790;2023-11-19T12:23:00;18.83;;;4.00;;
39890;SDS011;25564;53.312;9.790;2023-11-19T12:25:37;18.27;;;3.73;;
39890;SDS011;25564;53.312;9.790;2023-11-19T12:28:12;20.80;;;4.67;;
39890;SDS011;25564;53.312;9.790;2023-11-19T12:30:44;17.40;;;4.25;;
39890;SDS011;25564;53.312;9.790;2023-11-19T12:33:17;21.30;;;4.20;;
39890;SDS011;25564;53.312;9.790;2023-11-19T12:35:48;15.00;;;3.27;;
39890;SDS011;25564;53.312;9.790;2023-11-19T12:41:02;19.00;;;4.13;;
39890;SDS011;25564;53.312;9.790;2023-11-19T12:43:35;29.30;;;4.93;;
39890;SDS011;25564;53.312;9.790;2023-11-19T12:46:22;19.57;;;3.43;;
39890;SDS011;25564;53.312;9.790;2023-11-19T12:48:55;26.23;;;4.80;;
39890;SDS011;25564;53.312;9.790;2023-11-19T12:51:32;20.37;;;4.27;;
39890;SDS011;25564;53.312;9.790;2023-11-19T12:54:04;19.23;;;4.60;;
39890;SDS011;25564;53.312;9.790;2023-11-19T12:56:36;18.03;;;3.83;;
39890;SDS011;25564;53.312;9.790;2023-11-19T12:59:15;19.67;;;3.97;;
39890;SDS011;25564;53.312;9.790;2023-11-19T13:04:30;21.80;;;4.33;;
39890;SDS011;25564;53.312;9.790;2023-11-19T13:07:02;26.67;;;5.33;;
39890;SDS011;25564;53.312;9.790;2023-11-19T13:09:37;24.67;;;5.07;;
39890;SDS011;25564;53.312;9.790;2023-11-19T13:12:14;22.77;;;5.20;;
39890;SDS011;25564;53.312;9.790;2023-11-19T13:14:46;22.20;;;3.53;;
39890;SDS011;25564;53.312;9.790;2023-11-19T13:17:18;20.77;;;4.13;;
39890;SDS011;25564;53.312;9.790;2023-11-19T13:19:49;19.17;;;4.13;;
39890;SDS011;25564;53.312;9.790;2023-11-19T13:22:22;20.27;;;4.30;;
39890;SDS011;25564;53.312;9.790;2023-11-19T13:24:53;21.13;;;3.80;;
39890;SDS011;25564;53.312;9.790;2023-11-19T13:27:25;18.87;;;4.07;;
39890;SDS011;25564;53.312;9.790;2023-11-19T13:29:56;22.57;;;4.27;;
39890;SDS011;25564;53.312;9.790;2023-11-19T13:32:29;30.90;;;6.07;;
39890;SDS011;25564;53.312;9.790;2023-11-19T13:35:01;23.07;;;3.77;;
39890;SDS011;25564;53.312;9.790;2023-11-19T13:37:34;25.80;;;4.77;;
39890;SDS011;25564;53.312;9.790;2023-11-19T13:40:08;18.30;;;5.47;;
39890;SDS011;25564;53.312;9.790;2023-11-19T13:42:41;21.20;;;4.18;;
39890;SDS011;25564;53.312;9.790;2023-11-19T13:45:15;29.03;;;6.47;;
39890;SDS011;25564;53.312;9.790;2023-11-19T13:47:49;21.63;;;5.20;;
39890;SDS011;25564;53.312;9.790;2023-11-19T13:50:22;21.13;;;4.07;;
39890;SDS011;25564;53.312;9.790;2023-11-19T13:52:55;23.53;;;4.70;;
39890;SDS011;25564;53.312;9.790;2023-11-19T13:55:26;19.43;;;4.10;;
39890;SDS011;25564;53.312;9.790;2023-11-19T13:57:58;28.00;;;6.87;;
39890;SDS011;25564;53.312;9.790;2023-11-19T14:00:29;23.73;;;6.07;;
39890;SDS011;25564;53.312;9.790;2023-11-19T14:03:01;23.33;;;6.07;;
39890;SDS011;25564;53.312;9.790;2023-11-19T14:05:34;30.20;;;5.63;;
39890;SDS011;25564;53.312;9.790;2023-11-19T14:08:08;21.47;;;4.90;;
39890;SDS011;25564;53.312;9.790;2023-11-19T14:10:55;15.70;;;3.97;;
39890;SDS011;25564;53.312;9.790;2023-11-19T14:13:27;21.70;;;4.90;;
39890;SDS011;25564;53.312;9.790;2023-11-19T14:15:58;19.23;;;3.87;;
39890;SDS011;25564;53.312;9.790;2023-11-19T14:18:33;24.80;;;4.03;;
39890;SDS011;25564;53.312;9.790;2023-11-19T14:21:04;16.57;;;4.20;;
39890;SDS011;25564;53.312;9.790;2023-11-19T14:23:39;18.67;;;3.67;;
39890;SDS011;25564;53.312;9.790;2023-11-19T14:26:10;20.30;;;4.53;;
39890;SDS011;25564;53.312;9.790;2023-11-19T14:28:42;15.90;;;3.70;;
39890;SDS011;25564;53.312;9.790;2023-11-19T14:31:16;18.37;;;3.87;;
39890;SDS011;25564;53.312;9.790;2023-11-19T14:33:47;16.07;;;4.23;;
39890;SDS011;25564;53.312;9.790;2023-11-19T14:36:20;18.33;;;5.27;;
39890;SDS011;25564;53.312;9.790;2023-11-19T14:38:52;17.57;;;4.77;;
39890;SDS011;25564;53.312;9.790;2023-11-19T14:41:24;19.10;;;4.97;;
39890;SDS011;25564;53.312;9.790;2023-11-19T14:43:55;17.50;;;3.90;;
39890;SDS011;25564;53.312;9.790;2023-11-19T14:46:27;16.17;;;4.63;;
39890;SDS011;25564;53.312;9.790;2023-11-19T14:48:58;18.23;;;3.93;;
39890;SDS011;25564;53.312;9.790;2023-11-19T14:51:30;13.53;;;3.77;;
39890;SDS011;25564;53.312;9.790;2023-11-19T14:54:03;15.23;;;4.23;;
39890;SDS011;25564;53.312;9.790;2023-11-19T14:56:35;14.80;;;3.40;;
39890;SDS011;25564;53.312;9.790;2023-11-19T14:59:06;12.83;;;2.60;;
39890;SDS011;25564;53.312;9.790;2023-11-19T15:01:38;20.50;;;3.70;;
39890;SDS011;25564;53.312;9.790;2023-11-19T15:04:11;13.17;;;2.50;;
39890;SDS011;25564;53.312;9.790;2023-11-19T15:06:43;9.77;;;2.40;;
39890;SDS011;25564;53.312;9.790;2023-11-19T15:09:15;13.40;;;2.80;;
39890;SDS011;25564;53.312;9.790;2023-11-19T15:11:48;12.90;;;2.33;;
39890;SDS011;25564;53.312;9.790;2023-11-19T15:14:20;8.87;;;2.73;;
39890;SDS011;25564;53.312;9.790;2023-11-19T15:16:52;9.27;;;2.30;;
39890;SDS011;25564;53.312;9.790;2023-11-19T15:19:23;13.63;;;2.77;;
39890;SDS011;25564;53.312;9.790;2023-11-19T15:21:55;9.33;;;2.00;;
39890;SDS011;25564;53.312;9.790;2023-11-19T15:24:26;10.67;;;2.00;;
39890;SDS011;25564;53.312;9.790;2023-11-19T15:26:57;14.77;;;2.63;;
39890;SDS011;25564;53.312;9.790;2023-11-19T15:29:32;6.90;;;2.03;;
39890;SDS011;25564;53.312;9.790;2023-11-19T15:32:05;9.03;;;2.53;;
39890;SDS011;25564;53.312;9.790;2023-11-19T15:34:38;10.07;;;2.40;;
39890;SDS011;25564;53.312;9.790;2023-11-19T15:37:12;7.70;;;1.80;;
39890;SDS011;25564;53.312;9.790;2023-11-19T15:39:45;8.70;;;2.20;;
39890;SDS011;25564;53.312;9.790;2023-11-19T15:42:18;9.50;;;2.97;;